sensor_id;sensor_type;location;lat;lon;timestamp;temperature;humidity
9116;DHT22;4593;53.652;10.168;2023-06-10T00:00:13;13.70;91.20
9116;DHT22;4593;53.652;10.168;2023-06-10T00:02:40;13.60;91.10
9116;DHT22;4593;53.652;10.168;2023-06-10T00:05:07;13.60;91.00
9116;DHT22;4593;53.652;10.168;2023-06-10T00:07:33;13.60;90.50
9116;DHT22;4593;53.652;10.168;2023-06-10T00:10:07;13.60;90.20
9116;DHT22;4593;53.652;10.168;2023-06-10T00:12:32;13.60;89.70
9116;DHT22;4593;53.652;10.168;2023-06-10T00:15:05;13.60;89.80
9116;DHT22;4593;53.652;10.168;2023-06-10T00:17:30;13.60;89.60
9116;DHT22;4593;53.652;10.168;2023-06-10T00:19:56;13.50;89.40
9116;DHT22;4593;53.652;10.168;2023-06-10T00:22:23;13.50;90.00
9116;DHT22;4593;53.652;10.168;2023-06-10T00:24:50;13.50;89.80
9116;DHT22;4593;53.652;10.168;2023-06-10T00:27:16;13.50;89.70
9116;DHT22;4593;53.652;10.168;2023-06-10T00:29:42;13.40;89.50
9116;DHT22;4593;53.652;10.168;2023-06-10T00:32:08;13.40;89.70
9116;DHT22;4593;53.652;10.168;2023-06-10T00:34:33;13.30;89.90
9116;DHT22;4593;53.652;10.168;2023-06-10T00:36:59;13.20;90.10
9116;DHT22;4593;53.652;10.168;2023-06-10T00:39:25;13.20;90.00
9116;DHT22;4593;53.652;10.168;2023-06-10T00:41:50;13.10;90.40
9116;DHT22;4593;53.652;10.168;2023-06-10T00:44:16;13.10;90.70
9116;DHT22;4593;53.652;10.168;2023-06-10T00:46:42;13.10;90.60
9116;DHT22;4593;53.652;10.168;2023-06-10T00:49:09;13.10;90.30
9116;DHT22;4593;53.652;10.168;2023-06-10T00:51:35;13.10;90.10
9116;DHT22;4593;53.652;10.168;2023-06-10T00:54:02;13.10;89.70
9116;DHT22;4593;53.652;10.168;2023-06-10T00:56:28;13.00;89.90
9116;DHT22;4593;53.652;10.168;2023-06-10T00:58:54;13.00;89.70
9116;DHT22;4593;53.652;10.168;2023-06-10T01:01:20;13.00;89.80
9116;DHT22;4593;53.652;10.168;2023-06-10T01:03:46;13.00;89.70
9116;DHT22;4593;53.652;10.168;2023-06-10T01:06:43;13.00;90.00
9116;DHT22;4593;53.652;10.168;2023-06-10T01:09:23;13.00;89.60
9116;DHT22;4593;53.652;10.168;2023-06-10T01:12:01;12.90;90.00
9116;DHT22;4593;53.652;10.168;2023-06-10T01:14:29;12.80;90.40
9116;DHT22;4593;53.652;10.168;2023-06-10T01:16:57;12.80;90.20
9116;DHT22;4593;53.652;10.168;2023-06-10T01:19:23;12.80;89.90
9116;DHT22;4593;53.652;10.168;2023-06-10T01:21:50;12.80;90.10
9116;DHT22;4593;53.652;10.168;2023-06-10T01:24:17;12.80;89.80
9116;DHT22;4593;53.652;10.168;2023-06-10T01:26:45;12.80;89.80
9116;DHT22;4593;53.652;10.168;2023-06-10T01:29:27;12.80;89.60
9116;DHT22;4593;53.652;10.168;2023-06-10T01:32:04;12.80;89.60
9116;DHT22;4593;53.652;10.168;2023-06-10T01:34:32;12.80;89.40
9116;DHT22;4593;53.652;10.168;2023-06-10T01:36:59;12.70;89.20
9116;DHT22;4593;53.652;10.168;2023-06-10T01:39:25;12.80;88.90
9116;DHT22;4593;53.652;10.168;2023-06-10T01:41:52;12.70;88.90
9116;DHT22;4593;53.652;10.168;2023-06-10T01:44:21;12.80;88.80
9116;DHT22;4593;53.652;10.168;2023-06-10T01:46:47;12.80;88.40
9116;DHT22;4593;53.652;10.168;2023-06-10T01:49:13;12.70;88.50
9116;DHT22;4593;53.652;10.168;2023-06-10T01:51:39;12.70;88.50
9116;DHT22;4593;53.652;10.168;2023-06-10T01:54:05;12.70;88.70
9116;DHT22;4593;53.652;10.168;2023-06-10T01:56:31;12.70;88.70
9116;DHT22;4593;53.652;10.168;2023-06-10T01:58:57;12.60;88.90
9116;DHT22;4593;53.652;10.168;2023-06-10T02:01:26;12.60;88.80
9116;DHT22;4593;53.652;10.168;2023-06-10T02:03:52;12.60;88.70
9116;DHT22;4593;53.652;10.168;2023-06-10T02:06:18;12.60;88.70
9116;DHT22;4593;53.652;10.168;2023-06-10T02:08:44;12.50;88.60
9116;DHT22;4593;53.652;10.168;2023-06-10T02:11:10;12.50;89.10
9116;DHT22;4593;53.652;10.168;2023-06-10T02:13:35;12.50;89.30
9116;DHT22;4593;53.652;10.168;2023-06-10T02:16:01;12.50;89.40
9116;DHT22;4593;53.652;10.168;2023-06-10T02:18:27;12.40;89.60
9116;DHT22;4593;53.652;10.168;2023-06-10T02:20:54;12.30;89.90
9116;DHT22;4593;53.652;10.168;2023-06-10T02:23:19;12.30;90.20
9116;DHT22;4593;53.652;10.168;2023-06-10T02:25:45;12.30;90.10
9116;DHT22;4593;53.652;10.168;2023-06-10T02:28:13;12.30;90.10
9116;DHT22;4593;53.652;10.168;2023-06-10T02:30:40;12.30;90.20
9116;DHT22;4593;53.652;10.168;2023-06-10T02:33:06;12.30;90.00
9116;DHT22;4593;53.652;10.168;2023-06-10T02:35:36;12.30;90.20
9116;DHT22;4593;53.652;10.168;2023-06-10T02:38:02;12.30;90.00
9116;DHT22;4593;53.652;10.168;2023-06-10T02:40:28;12.30;90.30
9116;DHT22;4593;53.652;10.168;2023-06-10T02:42:53;12.30;90.40
9116;DHT22;4593;53.652;10.168;2023-06-10T02:45:19;12.30;90.60
9116;DHT22;4593;53.652;10.168;2023-06-10T02:47:45;12.30;90.20
9116;DHT22;4593;53.652;10.168;2023-06-10T02:50:11;12.30;90.20
9116;DHT22;4593;53.652;10.168;2023-06-10T02:52:37;12.30;90.40
9116;DHT22;4593;53.652;10.168;2023-06-10T02:55:03;12.30;90.70
9116;DHT22;4593;53.652;10.168;2023-06-10T02:57:29;12.30;90.70
9116;DHT22;4593;53.652;10.168;2023-06-10T02:59:55;12.30;90.50
9116;DHT22;4593;53.652;10.168;2023-06-10T03:02:20;12.30;90.40
9116;DHT22;4593;53.652;10.168;2023-06-10T03:04:47;12.30;90.30
9116;DHT22;4593;53.652;10.168;2023-06-10T03:07:13;12.30;90.40
9116;DHT22;4593;53.652;10.168;2023-06-10T03:09:39;12.30;90.10
9116;DHT22;4593;53.652;10.168;2023-06-10T03:12:05;12.40;90.00
9116;DHT22;4593;53.652;10.168;2023-06-10T03:14:31;12.40;90.10
9116;DHT22;4593;53.652;10.168;2023-06-10T03:16:57;12.40;90.00
9116;DHT22;4593;53.652;10.168;2023-06-10T03:19:23;12.30;90.10
9116;DHT22;4593;53.652;10.168;2023-06-10T03:21:57;12.40;90.10
9116;DHT22;4593;53.652;10.168;2023-06-10T03:24:23;12.40;89.80
9116;DHT22;4593;53.652;10.168;2023-06-10T03:26:49;12.40;89.90
9116;DHT22;4593;53.652;10.168;2023-06-10T03:29:15;12.40;90.00
9116;DHT22;4593;53.652;10.168;2023-06-10T03:31:40;12.40;89.80
9116;DHT22;4593;53.652;10.168;2023-06-10T03:34:06;12.40;89.80
9116;DHT22;4593;53.652;10.168;2023-06-10T03:36:31;12.40;89.90
9116;DHT22;4593;53.652;10.168;2023-06-10T03:38:57;12.40;89.80
9116;DHT22;4593;53.652;10.168;2023-06-10T03:41:23;12.40;89.80
9116;DHT22;4593;53.652;10.168;2023-06-10T03:43:48;12.50;89.70
9116;DHT22;4593;53.652;10.168;2023-06-10T03:46:14;12.50;89.80
9116;DHT22;4593;53.652;10.168;2023-06-10T03:48:40;12.50;89.60
9116;DHT22;4593;53.652;10.168;2023-06-10T03:51:06;12.50;90.00
9116;DHT22;4593;53.652;10.168;2023-06-10T03:53:32;12.40;90.30
9116;DHT22;4593;53.652;10.168;2023-06-10T03:55:58;12.50;90.40
9116;DHT22;4593;53.652;10.168;2023-06-10T03:58:23;12.50;89.90
9116;DHT22;4593;53.652;10.168;2023-06-10T04:00:49;12.60;89.80
9116;DHT22;4593;53.652;10.168;2023-06-10T04:03:15;12.60;89.60
9116;DHT22;4593;53.652;10.168;2023-06-10T04:05:41;12.60;89.60
9116;DHT22;4593;53.652;10.168;2023-06-10T04:08:07;12.60;90.00
9116;DHT22;4593;53.652;10.168;2023-06-10T04:10:33;12.70;89.60
9116;DHT22;4593;53.652;10.168;2023-06-10T04:12:59;12.80;89.40
9116;DHT22;4593;53.652;10.168;2023-06-10T04:15:25;12.90;89.00
9116;DHT22;4593;53.652;10.168;2023-06-10T04:17:51;12.90;88.70
9116;DHT22;4593;53.652;10.168;2023-06-10T04:20:16;13.00;88.90
9116;DHT22;4593;53.652;10.168;2023-06-10T04:22:42;13.10;88.40
9116;DHT22;4593;53.652;10.168;2023-06-10T04:25:09;13.30;87.80
9116;DHT22;4593;53.652;10.168;2023-06-10T04:27:36;13.50;87.50
9116;DHT22;4593;53.652;10.168;2023-06-10T04:30:05;13.80;86.80
9116;DHT22;4593;53.652;10.168;2023-06-10T04:32:31;14.10;85.60
9116;DHT22;4593;53.652;10.168;2023-06-10T04:34:57;14.20;84.40
9116;DHT22;4593;53.652;10.168;2023-06-10T04:37:23;14.30;84.10
9116;DHT22;4593;53.652;10.168;2023-06-10T04:39:48;14.30;83.70
9116;DHT22;4593;53.652;10.168;2023-06-10T04:42:14;14.20;84.50
9116;DHT22;4593;53.652;10.168;2023-06-10T04:44:40;14.10;84.80
9116;DHT22;4593;53.652;10.168;2023-06-10T04:47:06;14.10;85.20
9116;DHT22;4593;53.652;10.168;2023-06-10T04:49:33;14.20;85.10
9116;DHT22;4593;53.652;10.168;2023-06-10T04:51:59;14.10;85.40
9116;DHT22;4593;53.652;10.168;2023-06-10T04:54:25;14.20;85.20
9116;DHT22;4593;53.652;10.168;2023-06-10T04:56:51;14.30;84.70
9116;DHT22;4593;53.652;10.168;2023-06-10T04:59:17;14.50;84.40
9116;DHT22;4593;53.652;10.168;2023-06-10T05:01:42;14.80;83.50
9116;DHT22;4593;53.652;10.168;2023-06-10T05:04:08;14.80;82.70
9116;DHT22;4593;53.652;10.168;2023-06-10T05:06:34;14.50;83.50
9116;DHT22;4593;53.652;10.168;2023-06-10T05:09:01;14.70;83.50
9116;DHT22;4593;53.652;10.168;2023-06-10T05:11:26;14.80;83.30
9116;DHT22;4593;53.652;10.168;2023-06-10T05:13:52;14.80;83.40
9116;DHT22;4593;53.652;10.168;2023-06-10T05:16:18;15.00;83.10
9116;DHT22;4593;53.652;10.168;2023-06-10T05:18:43;15.00;82.70
9116;DHT22;4593;53.652;10.168;2023-06-10T05:21:09;15.00;82.40
9116;DHT22;4593;53.652;10.168;2023-06-10T05:23:35;15.10;82.80
9116;DHT22;4593;53.652;10.168;2023-06-10T05:26:00;15.10;82.20
9116;DHT22;4593;53.652;10.168;2023-06-10T05:28:26;15.10;82.30
9116;DHT22;4593;53.652;10.168;2023-06-10T05:30:52;15.10;82.30
9116;DHT22;4593;53.652;10.168;2023-06-10T05:33:17;15.10;81.80
9116;DHT22;4593;53.652;10.168;2023-06-10T05:35:43;15.10;81.60
9116;DHT22;4593;53.652;10.168;2023-06-10T05:38:08;15.20;81.80
9116;DHT22;4593;53.652;10.168;2023-06-10T05:40:34;15.30;81.50
9116;DHT22;4593;53.652;10.168;2023-06-10T05:43:00;15.30;80.80
9116;DHT22;4593;53.652;10.168;2023-06-10T05:45:26;15.30;80.80
9116;DHT22;4593;53.652;10.168;2023-06-10T05:47:52;15.20;81.10
9116;DHT22;4593;53.652;10.168;2023-06-10T05:50:18;15.30;81.10
9116;DHT22;4593;53.652;10.168;2023-06-10T05:52:43;15.50;80.50
9116;DHT22;4593;53.652;10.168;2023-06-10T05:55:09;15.60;79.50
9116;DHT22;4593;53.652;10.168;2023-06-10T05:57:35;15.70;78.80
9116;DHT22;4593;53.652;10.168;2023-06-10T06:00:01;15.80;78.40
9116;DHT22;4593;53.652;10.168;2023-06-10T06:02:26;15.90;77.50
9116;DHT22;4593;53.652;10.168;2023-06-10T06:04:52;15.90;77.20
9116;DHT22;4593;53.652;10.168;2023-06-10T06:07:18;16.10;76.90
9116;DHT22;4593;53.652;10.168;2023-06-10T06:09:46;16.10;76.30
9116;DHT22;4593;53.652;10.168;2023-06-10T06:12:12;16.10;76.10
9116;DHT22;4593;53.652;10.168;2023-06-10T06:14:38;16.00;76.00
9116;DHT22;4593;53.652;10.168;2023-06-10T06:17:07;16.10;76.40
9116;DHT22;4593;53.652;10.168;2023-06-10T06:19:33;16.30;75.50
9116;DHT22;4593;53.652;10.168;2023-06-10T06:21:58;16.30;75.10
9116;DHT22;4593;53.652;10.168;2023-06-10T06:24:24;16.40;74.80
9116;DHT22;4593;53.652;10.168;2023-06-10T06:26:49;16.40;75.40
9116;DHT22;4593;53.652;10.168;2023-06-10T06:29:15;16.50;74.90
9116;DHT22;4593;53.652;10.168;2023-06-10T06:31:41;16.70;73.80
9116;DHT22;4593;53.652;10.168;2023-06-10T06:34:06;16.70;74.30
9116;DHT22;4593;53.652;10.168;2023-06-10T06:36:32;17.10;73.10
9116;DHT22;4593;53.652;10.168;2023-06-10T06:38:58;17.10;72.50
9116;DHT22;4593;53.652;10.168;2023-06-10T06:41:26;17.10;72.40
9116;DHT22;4593;53.652;10.168;2023-06-10T06:43:51;17.30;71.80
9116;DHT22;4593;53.652;10.168;2023-06-10T06:46:17;17.40;71.60
9116;DHT22;4593;53.652;10.168;2023-06-10T06:48:43;17.40;71.20
9116;DHT22;4593;53.652;10.168;2023-06-10T06:51:08;17.60;70.90
9116;DHT22;4593;53.652;10.168;2023-06-10T06:53:34;17.80;70.20
9116;DHT22;4593;53.652;10.168;2023-06-10T06:56:01;18.00;69.40
9116;DHT22;4593;53.652;10.168;2023-06-10T06:58:27;18.40;70.10
9116;DHT22;4593;53.652;10.168;2023-06-10T07:00:53;18.80;66.80
9116;DHT22;4593;53.652;10.168;2023-06-10T07:03:18;19.20;66.20
9116;DHT22;4593;53.652;10.168;2023-06-10T07:05:44;19.60;64.20
9116;DHT22;4593;53.652;10.168;2023-06-10T07:08:10;19.60;64.20
9116;DHT22;4593;53.652;10.168;2023-06-10T07:10:37;19.70;63.50
9116;DHT22;4593;53.652;10.168;2023-06-10T07:13:03;20.10;63.70
9116;DHT22;4593;53.652;10.168;2023-06-10T07:15:28;20.70;63.10
9116;DHT22;4593;53.652;10.168;2023-06-10T07:17:54;21.10;59.80
9116;DHT22;4593;53.652;10.168;2023-06-10T07:20:20;21.20;57.80
9116;DHT22;4593;53.652;10.168;2023-06-10T07:22:46;20.90;59.30
9116;DHT22;4593;53.652;10.168;2023-06-10T07:25:12;20.80;59.80
9116;DHT22;4593;53.652;10.168;2023-06-10T07:27:37;20.50;60.30
9116;DHT22;4593;53.652;10.168;2023-06-10T07:30:05;20.30;61.50
9116;DHT22;4593;53.652;10.168;2023-06-10T07:32:32;21.00;61.00
9116;DHT22;4593;53.652;10.168;2023-06-10T07:34:57;21.50;58.50
9116;DHT22;4593;53.652;10.168;2023-06-10T07:37:23;21.60;58.30
9116;DHT22;4593;53.652;10.168;2023-06-10T07:39:49;21.40;57.60
9116;DHT22;4593;53.652;10.168;2023-06-10T07:42:14;21.50;58.50
9116;DHT22;4593;53.652;10.168;2023-06-10T07:44:40;21.10;58.50
9116;DHT22;4593;53.652;10.168;2023-06-10T07:47:06;20.90;59.80
9116;DHT22;4593;53.652;10.168;2023-06-10T07:49:31;21.00;59.20
9116;DHT22;4593;53.652;10.168;2023-06-10T07:51:57;21.00;59.30
9116;DHT22;4593;53.652;10.168;2023-06-10T07:54:23;21.10;59.30
9116;DHT22;4593;53.652;10.168;2023-06-10T07:56:48;21.10;58.90
9116;DHT22;4593;53.652;10.168;2023-06-10T07:59:14;21.20;59.50
9116;DHT22;4593;53.652;10.168;2023-06-10T08:01:40;21.10;59.30
9116;DHT22;4593;53.652;10.168;2023-06-10T08:04:06;20.80;59.70
9116;DHT22;4593;53.652;10.168;2023-06-10T08:06:32;20.80;61.00
9116;DHT22;4593;53.652;10.168;2023-06-10T08:08:57;21.30;60.60
9116;DHT22;4593;53.652;10.168;2023-06-10T08:11:23;21.50;58.30
9116;DHT22;4593;53.652;10.168;2023-06-10T08:13:49;21.70;59.00
9116;DHT22;4593;53.652;10.168;2023-06-10T08:16:14;21.80;57.80
9116;DHT22;4593;53.652;10.168;2023-06-10T08:18:40;21.90;57.10
9116;DHT22;4593;53.652;10.168;2023-06-10T08:21:06;21.70;57.40
9116;DHT22;4593;53.652;10.168;2023-06-10T08:23:32;21.90;58.20
9116;DHT22;4593;53.652;10.168;2023-06-10T08:25:57;22.20;56.60
9116;DHT22;4593;53.652;10.168;2023-06-10T08:28:23;22.50;55.50
9116;DHT22;4593;53.652;10.168;2023-06-10T08:30:49;22.50;56.50
9116;DHT22;4593;53.652;10.168;2023-06-10T08:33:15;22.40;55.90
9116;DHT22;4593;53.652;10.168;2023-06-10T08:35:40;21.90;56.80
9116;DHT22;4593;53.652;10.168;2023-06-10T08:38:06;22.20;57.60
9116;DHT22;4593;53.652;10.168;2023-06-10T08:40:33;22.60;56.90
9116;DHT22;4593;53.652;10.168;2023-06-10T08:43:14;22.90;55.70
9116;DHT22;4593;53.652;10.168;2023-06-10T08:45:43;22.90;55.60
9116;DHT22;4593;53.652;10.168;2023-06-10T08:48:10;23.20;54.50
9116;DHT22;4593;53.652;10.168;2023-06-10T08:50:38;22.90;56.00
9116;DHT22;4593;53.652;10.168;2023-06-10T08:53:07;22.20;57.00
9116;DHT22;4593;53.652;10.168;2023-06-10T08:55:36;22.00;57.70
9116;DHT22;4593;53.652;10.168;2023-06-10T08:58:02;21.20;59.80
9116;DHT22;4593;53.652;10.168;2023-06-10T09:00:30;21.40;61.00
9116;DHT22;4593;53.652;10.168;2023-06-10T09:02:57;22.00;59.40
9116;DHT22;4593;53.652;10.168;2023-06-10T09:05:23;22.20;57.50
9116;DHT22;4593;53.652;10.168;2023-06-10T09:07:51;22.20;58.00
9116;DHT22;4593;53.652;10.168;2023-06-10T09:10:17;22.60;57.20
9116;DHT22;4593;53.652;10.168;2023-06-10T09:12:43;22.60;57.00
9116;DHT22;4593;53.652;10.168;2023-06-10T09:15:09;22.70;56.70
9116;DHT22;4593;53.652;10.168;2023-06-10T09:17:37;23.00;56.50
9116;DHT22;4593;53.652;10.168;2023-06-10T09:20:04;22.70;56.60
9116;DHT22;4593;53.652;10.168;2023-06-10T09:22:29;22.80;57.30
9116;DHT22;4593;53.652;10.168;2023-06-10T09:25:03;22.50;57.50
9116;DHT22;4593;53.652;10.168;2023-06-10T09:27:31;22.20;57.70
9116;DHT22;4593;53.652;10.168;2023-06-10T09:29:59;22.10;59.50
9116;DHT22;4593;53.652;10.168;2023-06-10T09:32:25;22.40;58.60
9116;DHT22;4593;53.652;10.168;2023-06-10T09:34:52;22.20;58.80
9116;DHT22;4593;53.652;10.168;2023-06-10T09:37:21;22.60;58.40
9116;DHT22;4593;53.652;10.168;2023-06-10T09:40:07;22.70;57.50
9116;DHT22;4593;53.652;10.168;2023-06-10T09:42:38;23.10;57.30
9116;DHT22;4593;53.652;10.168;2023-06-10T09:45:05;23.10;56.60
9116;DHT22;4593;53.652;10.168;2023-06-10T09:47:31;22.80;57.50
9116;DHT22;4593;53.652;10.168;2023-06-10T09:49:57;22.70;58.10
9116;DHT22;4593;53.652;10.168;2023-06-10T09:52:26;22.60;58.20
9116;DHT22;4593;53.652;10.168;2023-06-10T09:54:52;22.80;58.40
9116;DHT22;4593;53.652;10.168;2023-06-10T09:57:20;23.20;57.30
9116;DHT22;4593;53.652;10.168;2023-06-10T09:59:46;23.50;56.80
9116;DHT22;4593;53.652;10.168;2023-06-10T10:02:16;23.70;55.60
9116;DHT22;4593;53.652;10.168;2023-06-10T10:04:43;23.40;55.70
9116;DHT22;4593;53.652;10.168;2023-06-10T10:07:10;23.10;56.90
9116;DHT22;4593;53.652;10.168;2023-06-10T10:09:39;23.50;57.30
9116;DHT22;4593;53.652;10.168;2023-06-10T10:12:15;23.40;57.00
9116;DHT22;4593;53.652;10.168;2023-06-10T10:14:46;23.70;57.10
9116;DHT22;4593;53.652;10.168;2023-06-10T10:17:14;24.20;55.60
9116;DHT22;4593;53.652;10.168;2023-06-10T10:19:48;24.10;55.10
9116;DHT22;4593;53.652;10.168;2023-06-10T10:22:29;24.10;54.50
9116;DHT22;4593;53.652;10.168;2023-06-10T10:25:00;24.10;54.90
9116;DHT22;4593;53.652;10.168;2023-06-10T10:27:28;24.10;54.30
9116;DHT22;4593;53.652;10.168;2023-06-10T10:29:58;23.90;54.70
9116;DHT22;4593;53.652;10.168;2023-06-10T10:32:32;23.70;55.90
9116;DHT22;4593;53.652;10.168;2023-06-10T10:35:17;23.30;56.50
9116;DHT22;4593;53.652;10.168;2023-06-10T10:37:44;23.10;57.90
9116;DHT22;4593;53.652;10.168;2023-06-10T10:40:11;23.20;58.20
9116;DHT22;4593;53.652;10.168;2023-06-10T10:42:38;23.40;57.20
9116;DHT22;4593;53.652;10.168;2023-06-10T10:45:05;23.70;57.70
9116;DHT22;4593;53.652;10.168;2023-06-10T10:47:33;23.40;57.40
9116;DHT22;4593;53.652;10.168;2023-06-10T10:50:01;23.60;57.60
9116;DHT22;4593;53.652;10.168;2023-06-10T10:55:19;24.20;56.40
9116;DHT22;4593;53.652;10.168;2023-06-10T10:57:54;24.50;56.10
9116;DHT22;4593;53.652;10.168;2023-06-10T11:00:46;24.20;56.00
9116;DHT22;4593;53.652;10.168;2023-06-10T11:03:16;24.20;56.30
9116;DHT22;4593;53.652;10.168;2023-06-10T11:05:46;24.20;55.90
9116;DHT22;4593;53.652;10.168;2023-06-10T11:16:28;24.10;57.40
9116;DHT22;4593;53.652;10.168;2023-06-10T11:18:54;24.10;56.60
9116;DHT22;4593;53.652;10.168;2023-06-10T11:21:20;24.40;56.90
9116;DHT22;4593;53.652;10.168;2023-06-10T11:23:46;24.50;56.00
9116;DHT22;4593;53.652;10.168;2023-06-10T11:31:30;24.60;56.20
9116;DHT22;4593;53.652;10.168;2023-06-10T11:33:57;24.40;56.00
9116;DHT22;4593;53.652;10.168;2023-06-10T11:36:24;24.30;55.50
9116;DHT22;4593;53.652;10.168;2023-06-10T11:38:56;24.30;56.30
9116;DHT22;4593;53.652;10.168;2023-06-10T11:41:24;24.40;56.20
9116;DHT22;4593;53.652;10.168;2023-06-10T11:43:52;24.30;56.60
9116;DHT22;4593;53.652;10.168;2023-06-10T11:46:18;24.40;56.90
9116;DHT22;4593;53.652;10.168;2023-06-10T11:48:51;24.50;56.00
9116;DHT22;4593;53.652;10.168;2023-06-10T11:51:17;24.30;57.20
9116;DHT22;4593;53.652;10.168;2023-06-10T11:53:47;24.40;56.60
9116;DHT22;4593;53.652;10.168;2023-06-10T11:56:13;24.70;56.70
9116;DHT22;4593;53.652;10.168;2023-06-10T11:58:43;24.80;56.00
9116;DHT22;4593;53.652;10.168;2023-06-10T12:01:10;24.70;56.10
9116;DHT22;4593;53.652;10.168;2023-06-10T12:03:37;24.50;56.50
9116;DHT22;4593;53.652;10.168;2023-06-10T12:06:05;24.50;57.00
9116;DHT22;4593;53.652;10.168;2023-06-10T12:08:32;24.60;57.40
9116;DHT22;4593;53.652;10.168;2023-06-10T12:10:58;24.70;56.40
9116;DHT22;4593;53.652;10.168;2023-06-10T12:13:26;24.70;56.20
9116;DHT22;4593;53.652;10.168;2023-06-10T12:15:52;24.70;56.60
9116;DHT22;4593;53.652;10.168;2023-06-10T12:18:24;24.70;55.80
9116;DHT22;4593;53.652;10.168;2023-06-10T12:20:51;24.80;55.50
9116;DHT22;4593;53.652;10.168;2023-06-10T12:23:17;24.90;55.90
9116;DHT22;4593;53.652;10.168;2023-06-10T12:25:50;24.90;55.60
9116;DHT22;4593;53.652;10.168;2023-06-10T12:28:22;24.70;56.90
9116;DHT22;4593;53.652;10.168;2023-06-10T12:30:49;24.90;56.80
9116;DHT22;4593;53.652;10.168;2023-06-10T12:33:21;25.00;56.70
9116;DHT22;4593;53.652;10.168;2023-06-10T12:35:52;25.30;55.60
9116;DHT22;4593;53.652;10.168;2023-06-10T12:38:25;25.20;55.10
9116;DHT22;4593;53.652;10.168;2023-06-10T12:40:54;25.30;55.50
9116;DHT22;4593;53.652;10.168;2023-06-10T12:43:26;25.40;55.00
9116;DHT22;4593;53.652;10.168;2023-06-10T12:45:52;25.30;55.00
9116;DHT22;4593;53.652;10.168;2023-06-10T12:48:21;25.30;55.70
9116;DHT22;4593;53.652;10.168;2023-06-10T12:50:52;25.40;55.30
9116;DHT22;4593;53.652;10.168;2023-06-10T12:53:19;25.40;55.50
9116;DHT22;4593;53.652;10.168;2023-06-10T12:55:45;25.40;56.00
9116;DHT22;4593;53.652;10.168;2023-06-10T12:58:11;25.50;55.70
9116;DHT22;4593;53.652;10.168;2023-06-10T13:00:37;25.30;56.40
9116;DHT22;4593;53.652;10.168;2023-06-10T13:03:03;25.10;56.70
9116;DHT22;4593;53.652;10.168;2023-06-10T13:05:31;25.10;56.50
9116;DHT22;4593;53.652;10.168;2023-06-10T13:07:57;25.10;56.80
9116;DHT22;4593;53.652;10.168;2023-06-10T13:10:23;25.30;56.70
9116;DHT22;4593;53.652;10.168;2023-06-10T13:12:50;25.00;57.40
9116;DHT22;4593;53.652;10.168;2023-06-10T13:15:16;25.10;57.90
9116;DHT22;4593;53.652;10.168;2023-06-10T13:17:45;25.20;56.60
9116;DHT22;4593;53.652;10.168;2023-06-10T13:20:15;25.00;56.80
9116;DHT22;4593;53.652;10.168;2023-06-10T13:22:42;25.00;56.70
9116;DHT22;4593;53.652;10.168;2023-06-10T13:25:08;25.00;57.10
9116;DHT22;4593;53.652;10.168;2023-06-10T13:27:35;25.00;57.00
9116;DHT22;4593;53.652;10.168;2023-06-10T13:30:03;25.10;57.50
9116;DHT22;4593;53.652;10.168;2023-06-10T13:32:29;25.20;57.00
9116;DHT22;4593;53.652;10.168;2023-06-10T13:34:55;25.10;57.00
9116;DHT22;4593;53.652;10.168;2023-06-10T13:37:22;25.00;57.30
9116;DHT22;4593;53.652;10.168;2023-06-10T13:39:48;24.90;58.00
9116;DHT22;4593;53.652;10.168;2023-06-10T13:42:19;24.60;58.30
9116;DHT22;4593;53.652;10.168;2023-06-10T13:44:45;24.00;59.80
9116;DHT22;4593;53.652;10.168;2023-06-10T13:47:11;24.10;60.20
9116;DHT22;4593;53.652;10.168;2023-06-10T13:49:36;24.10;59.50
9116;DHT22;4593;53.652;10.168;2023-06-10T13:52:03;24.20;59.90
9116;DHT22;4593;53.652;10.168;2023-06-10T13:54:28;24.30;59.10
9116;DHT22;4593;53.652;10.168;2023-06-10T13:56:54;24.30;58.60
9116;DHT22;4593;53.652;10.168;2023-06-10T13:59:20;24.40;59.40
9116;DHT22;4593;53.652;10.168;2023-06-10T14:01:46;24.50;58.10
9116;DHT22;4593;53.652;10.168;2023-06-10T14:04:12;24.00;59.40
9116;DHT22;4593;53.652;10.168;2023-06-10T14:06:38;23.90;60.80
9116;DHT22;4593;53.652;10.168;2023-06-10T14:09:03;24.10;60.20
9116;DHT22;4593;53.652;10.168;2023-06-10T14:11:30;24.30;59.40
9116;DHT22;4593;53.652;10.168;2023-06-10T14:13:55;24.40;58.70
9116;DHT22;4593;53.652;10.168;2023-06-10T14:16:24;24.40;58.80
9116;DHT22;4593;53.652;10.168;2023-06-10T14:18:50;24.50;58.50
9116;DHT22;4593;53.652;10.168;2023-06-10T14:21:19;24.50;58.20
9116;DHT22;4593;53.652;10.168;2023-06-10T14:23:44;24.70;57.80
9116;DHT22;4593;53.652;10.168;2023-06-10T14:26:11;24.60;57.90
9116;DHT22;4593;53.652;10.168;2023-06-10T14:28:36;24.30;59.10
9116;DHT22;4593;53.652;10.168;2023-06-10T14:31:02;24.30;59.30
9116;DHT22;4593;53.652;10.168;2023-06-10T14:33:28;24.30;58.80
9116;DHT22;4593;53.652;10.168;2023-06-10T14:35:54;24.40;57.90
9116;DHT22;4593;53.652;10.168;2023-06-10T14:38:19;24.40;58.20
9116;DHT22;4593;53.652;10.168;2023-06-10T14:40:45;24.50;58.20
9116;DHT22;4593;53.652;10.168;2023-06-10T14:43:11;24.60;57.80
9116;DHT22;4593;53.652;10.168;2023-06-10T14:45:37;24.60;58.10
9116;DHT22;4593;53.652;10.168;2023-06-10T14:48:04;24.60;58.10
9116;DHT22;4593;53.652;10.168;2023-06-10T14:50:30;24.80;57.30
9116;DHT22;4593;53.652;10.168;2023-06-10T14:52:55;24.70;56.70
9116;DHT22;4593;53.652;10.168;2023-06-10T14:55:21;24.60;57.50
9116;DHT22;4593;53.652;10.168;2023-06-10T14:57:48;24.60;57.30
9116;DHT22;4593;53.652;10.168;2023-06-10T15:00:14;24.50;58.10
9116;DHT22;4593;53.652;10.168;2023-06-10T15:02:42;24.50;57.70
9116;DHT22;4593;53.652;10.168;2023-06-10T15:05:08;24.70;57.00
9116;DHT22;4593;53.652;10.168;2023-06-10T15:07:34;24.70;57.40
9116;DHT22;4593;53.652;10.168;2023-06-10T15:09:59;24.80;57.20
9116;DHT22;4593;53.652;10.168;2023-06-10T15:12:26;24.40;58.30
9116;DHT22;4593;53.652;10.168;2023-06-10T15:14:53;24.30;58.20
9116;DHT22;4593;53.652;10.168;2023-06-10T15:17:18;24.30;58.20
9116;DHT22;4593;53.652;10.168;2023-06-10T15:19:44;24.00;59.00
9116;DHT22;4593;53.652;10.168;2023-06-10T15:22:10;24.10;58.80
9116;DHT22;4593;53.652;10.168;2023-06-10T15:24:37;24.10;59.40
9116;DHT22;4593;53.652;10.168;2023-06-10T15:27:03;24.00;58.70
9116;DHT22;4593;53.652;10.168;2023-06-10T15:29:28;23.90;58.50
9116;DHT22;4593;53.652;10.168;2023-06-10T15:31:54;23.70;59.10
9116;DHT22;4593;53.652;10.168;2023-06-10T15:34:20;23.70;59.90
9116;DHT22;4593;53.652;10.168;2023-06-10T15:36:45;24.00;58.10
9116;DHT22;4593;53.652;10.168;2023-06-10T15:39:11;23.90;58.00
9116;DHT22;4593;53.652;10.168;2023-06-10T15:41:36;23.80;58.80
9116;DHT22;4593;53.652;10.168;2023-06-10T15:44:02;23.80;59.30
9116;DHT22;4593;53.652;10.168;2023-06-10T15:46:29;23.80;59.00
9116;DHT22;4593;53.652;10.168;2023-06-10T15:48:55;23.70;58.80
9116;DHT22;4593;53.652;10.168;2023-06-10T15:51:21;23.90;58.00
9116;DHT22;4593;53.652;10.168;2023-06-10T15:53:46;23.80;58.20
9116;DHT22;4593;53.652;10.168;2023-06-10T15:56:13;24.00;58.00
9116;DHT22;4593;53.652;10.168;2023-06-10T15:58:39;24.00;58.10